sensor_id;sensor_type;location;lat;lon;timestamp;pressure;altitude;pressure_sealevel;temperature;humidity
12868;BME280;33517;49.866;8.320;2023-03-04T00:02:29;101298.16;;;-1.15;73.80
12868;BME280;33517;49.866;8.320;2023-03-04T00:05:25;101304.16;;;-1.15;73.58
12868;BME280;33517;49.866;8.320;2023-03-04T00:08:18;101305.97;;;-1.17;74.57
12868;BME280;33517;49.866;8.320;2023-03-04T00:11:11;101317.81;;;-1.31;79.20
12868;BME280;33517;49.866;8.320;2023-03-04T00:14:06;101315.84;;;-1.45;82.69
12868;BME280;33517;49.866;8.320;2023-03-04T00:17:02;101311.94;;;-1.53;84.02
12868;BME280;33517;49.866;8.320;2023-03-04T00:19:55;101311.38;;;-1.41;82.08
12868;BME280;33517;49.866;8.320;2023-03-04T00:22:53;101317.03;;;-1.33;80.70
12868;BME280;33517;49.866;8.320;2023-03-04T00:25:48;101313.56;;;-1.32;79.38
12868;BME280;33517;49.866;8.320;2023-03-04T00:28:41;101309.31;;;-1.33;79.01
12868;BME280;33517;49.866;8.320;2023-03-04T00:31:37;101317.81;;;-1.31;78.20
12868;BME280;33517;49.866;8.320;2023-03-04T00:34:30;101311.69;;;-1.29;78.07
12868;BME280;33517;49.866;8.320;2023-03-04T00:37:23;101313.34;;;-1.28;77.70
12868;BME280;33517;49.866;8.320;2023-03-04T00:40:19;101308.25;;;-1.29;77.69
12868;BME280;33517;49.866;8.320;2023-03-04T00:43:11;101311.13;;;-1.35;77.50
12868;BME280;33517;49.866;8.320;2023-03-04T00:46:07;101309.66;;;-1.41;77.34
12868;BME280;33517;49.866;8.320;2023-03-04T00:49:02;101308.88;;;-1.43;77.51
12868;BME280;33517;49.866;8.320;2023-03-04T00:51:55;101311.53;;;-1.44;77.73
12868;BME280;33517;49.866;8.320;2023-03-04T00:54:50;101308.09;;;-1.45;77.53
12868;BME280;33517;49.866;8.320;2023-03-04T00:57:44;101303.91;;;-1.47;76.99
12868;BME280;33517;49.866;8.320;2023-03-04T01:00:41;101311.63;;;-1.47;77.20
12868;BME280;33517;49.866;8.320;2023-03-04T01:03:35;101302.25;;;-1.48;77.02
12868;BME280;33517;49.866;8.320;2023-03-04T01:06:33;101303.84;;;-1.46;76.87
12868;BME280;33517;49.866;8.320;2023-03-04T01:09:27;101306.47;;;-1.47;77.15
12868;BME280;33517;49.866;8.320;2023-03-04T01:12:21;101303.84;;;-1.46;77.31
12868;BME280;33517;49.866;8.320;2023-03-04T01:15:15;101297.09;;;-1.48;76.94
12868;BME280;33517;49.866;8.320;2023-03-04T01:18:08;101291.56;;;-1.41;78.16
12868;BME280;33517;49.866;8.320;2023-03-04T01:21:02;101286.91;;;-1.14;79.85
12868;BME280;33517;49.866;8.320;2023-03-04T01:23:59;101282.69;;;-1.15;78.75
12868;BME280;33517;49.866;8.320;2023-03-04T01:26:57;101283.44;;;-1.13;78.73
12868;BME280;33517;49.866;8.320;2023-03-04T01:29:53;101279.38;;;-1.19;78.54
12868;BME280;33517;49.866;8.320;2023-03-04T01:32:46;101278.06;;;-1.27;78.65
12868;BME280;33517;49.866;8.320;2023-03-04T01:35:41;101270.22;;;-1.44;79.22
12868;BME280;33517;49.866;8.320;2023-03-04T01:38:36;101278.06;;;-1.46;78.99
12868;BME280;33517;49.866;8.320;2023-03-04T01:41:32;101275.31;;;-1.61;79.66
12868;BME280;33517;49.866;8.320;2023-03-04T01:44:27;101269.56;;;-1.68;80.17
12868;BME280;33517;49.866;8.320;2023-03-04T01:47:23;101275.91;;;-1.75;82.42
12868;BME280;33517;49.866;8.320;2023-03-04T01:50:21;101267.78;;;-1.86;83.93
12868;BME280;33517;49.866;8.320;2023-03-04T01:53:20;101264.19;;;-1.82;83.37
12868;BME280;33517;49.866;8.320;2023-03-04T01:56:18;101268.94;;;-1.73;81.95
12868;BME280;33517;49.866;8.320;2023-03-04T01:59:18;101259.13;;;-1.65;81.44
12868;BME280;33517;49.866;8.320;2023-03-04T02:02:13;101256.53;;;-1.65;80.63
12868;BME280;33517;49.866;8.320;2023-03-04T02:05:08;101248.81;;;-1.65;80.19
12868;BME280;33517;49.866;8.320;2023-03-04T02:08:05;101254.94;;;-1.67;80.13
12868;BME280;33517;49.866;8.320;2023-03-04T02:10:59;101252.63;;;-1.73;81.10
12868;BME280;33517;49.866;8.320;2023-03-04T02:13:59;101246.94;;;-1.81;82.03
12868;BME280;33517;49.866;8.320;2023-03-04T02:16:59;101246.25;;;-1.85;82.45
12868;BME280;33517;49.866;8.320;2023-03-04T02:19:55;101241.31;;;-1.90;82.57
12868;BME280;33517;49.866;8.320;2023-03-04T02:23:00;101235.94;;;-1.85;81.73
12868;BME280;33517;49.866;8.320;2023-03-04T02:26:20;101236.25;;;-1.93;82.23
12868;BME280;33517;49.866;8.320;2023-03-04T02:29:15;101243.69;;;-2.05;83.15
12868;BME280;33517;49.866;8.320;2023-03-04T02:32:12;101237.69;;;-2.06;81.80
12868;BME280;33517;49.866;8.320;2023-03-04T02:35:09;101234.09;;;-2.02;81.86
12868;BME280;33517;49.866;8.320;2023-03-04T02:38:08;101233.63;;;-2.11;82.00
12868;BME280;33517;49.866;8.320;2023-03-04T02:41:02;101231.13;;;-2.13;81.20
12868;BME280;33517;49.866;8.320;2023-03-04T02:44:02;101237.09;;;-2.12;81.17
12868;BME280;33517;49.866;8.320;2023-03-04T02:46:58;101232.97;;;-2.16;80.91
12868;BME280;33517;49.866;8.320;2023-03-04T02:49:52;101236.53;;;-2.19;80.59
12868;BME280;33517;49.866;8.320;2023-03-04T02:52:50;101226.00;;;-2.14;80.69
12868;BME280;33517;49.866;8.320;2023-03-04T02:55:48;101229.91;;;-2.24;81.44
12868;BME280;33517;49.866;8.320;2023-03-04T02:58:41;101226.47;;;-2.25;80.94
12868;BME280;33517;49.866;8.320;2023-03-04T03:01:41;101228.53;;;-2.33;81.82
12868;BME280;33517;49.866;8.320;2023-03-04T03:04:36;101225.25;;;-2.36;81.61
12868;BME280;33517;49.866;8.320;2023-03-04T03:07:32;101223.53;;;-2.36;81.88
12868;BME280;33517;49.866;8.320;2023-03-04T03:10:26;101218.69;;;-2.43;83.28
12868;BME280;33517;49.866;8.320;2023-03-04T03:13:19;101226.34;;;-2.42;83.48
12868;BME280;33517;49.866;8.320;2023-03-04T03:16:12;101225.31;;;-2.38;83.77
12868;BME280;33517;49.866;8.320;2023-03-04T03:19:09;101226.03;;;-2.34;83.92
12868;BME280;33517;49.866;8.320;2023-03-04T03:22:06;101223.47;;;-2.34;83.16
12868;BME280;33517;49.866;8.320;2023-03-04T03:24:59;101225.00;;;-2.30;82.79
12868;BME280;33517;49.866;8.320;2023-03-04T03:27:53;101217.28;;;-2.30;82.07
12868;BME280;33517;49.866;8.320;2023-03-04T03:30:47;101217.53;;;-2.36;82.69
12868;BME280;33517;49.866;8.320;2023-03-04T03:33:43;101218.63;;;-2.42;83.43
12868;BME280;33517;49.866;8.320;2023-03-04T03:36:38;101211.84;;;-2.44;82.59
12868;BME280;33517;49.866;8.320;2023-03-04T03:39:35;101206.38;;;-2.57;83.78
12868;BME280;33517;49.866;8.320;2023-03-04T03:42:32;101215.31;;;-2.65;85.78
12868;BME280;33517;49.866;8.320;2023-03-04T03:45:26;101209.91;;;-2.59;85.33
12868;BME280;33517;49.866;8.320;2023-03-04T03:48:19;101209.19;;;-2.43;84.58
12868;BME280;33517;49.866;8.320;2023-03-04T03:51:20;101210.84;;;-2.20;84.58
12868;BME280;33517;49.866;8.320;2023-03-04T03:54:18;101207.03;;;-1.93;84.61
12868;BME280;33517;49.866;8.320;2023-03-04T03:57:11;101206.69;;;-1.65;84.78
12868;BME280;33517;49.866;8.320;2023-03-04T04:00:11;101212.53;;;-1.43;84.28
12868;BME280;33517;49.866;8.320;2023-03-04T04:03:10;101204.81;;;-1.25;83.74
12868;BME280;33517;49.866;8.320;2023-03-04T04:06:06;101208.19;;;-1.24;84.94
12868;BME280;33517;49.866;8.320;2023-03-04T04:09:03;101206.19;;;-1.18;84.39
12868;BME280;33517;49.866;8.320;2023-03-04T04:12:03;101200.88;;;-1.15;85.47
12868;BME280;33517;49.866;8.320;2023-03-04T04:15:01;101200.50;;;-0.88;85.27
12868;BME280;33517;49.866;8.320;2023-03-04T04:17:55;101198.81;;;-0.72;84.80
12868;BME280;33517;49.866;8.320;2023-03-04T04:20:50;101195.72;;;-0.62;84.09
12868;BME280;33517;49.866;8.320;2023-03-04T04:23:47;101194.66;;;-0.41;84.92
12868;BME280;33517;49.866;8.320;2023-03-04T04:26:41;101200.41;;;-0.02;85.81
12868;BME280;33517;49.866;8.320;2023-03-04T04:29:47;101201.16;;;0.33;85.52
12868;BME280;33517;49.866;8.320;2023-03-04T04:32:45;101200.69;;;0.58;85.27
12868;BME280;33517;49.866;8.320;2023-03-04T04:35:41;101192.00;;;0.74;84.94
12868;BME280;33517;49.866;8.320;2023-03-04T04:38:37;101197.91;;;1.08;86.24
12868;BME280;33517;49.866;8.320;2023-03-04T04:41:33;101182.50;;;1.20;84.81
12868;BME280;33517;49.866;8.320;2023-03-04T04:44:34;101195.28;;;1.23;84.23
12868;BME280;33517;49.866;8.320;2023-03-04T04:47:32;101192.25;;;1.31;84.33
12868;BME280;33517;49.866;8.320;2023-03-04T04:50:27;101193.00;;;1.33;83.80
12868;BME280;33517;49.866;8.320;2023-03-04T04:53:23;101190.50;;;1.31;83.59
12868;BME280;33517;49.866;8.320;2023-03-04T04:56:21;101195.03;;;1.28;83.16
12868;BME280;33517;49.866;8.320;2023-03-04T04:59:18;101195.59;;;1.33;82.73
12868;BME280;33517;49.866;8.320;2023-03-04T05:02:12;101190.50;;;1.31;82.34
12868;BME280;33517;49.866;8.320;2023-03-04T05:05:12;101191.72;;;1.40;83.11
12868;BME280;33517;49.866;8.320;2023-03-04T05:08:06;101194.81;;;1.46;82.75
12868;BME280;33517;49.866;8.320;2023-03-04T05:10:59;101191.97;;;1.51;83.36
12868;BME280;33517;49.866;8.320;2023-03-04T05:13:53;101189.38;;;1.51;82.56
12868;BME280;33517;49.866;8.320;2023-03-04T05:16:48;101186.19;;;1.46;83.17
12868;BME280;33517;49.866;8.320;2023-03-04T05:19:50;101190.28;;;1.50;82.57
12868;BME280;33517;49.866;8.320;2023-03-04T05:22:47;101184.31;;;1.63;83.13
12868;BME280;33517;49.866;8.320;2023-03-04T05:25:45;101180.41;;;1.56;82.78
12868;BME280;33517;49.866;8.320;2023-03-04T05:28:41;101178.06;;;1.52;82.79
12868;BME280;33517;49.866;8.320;2023-03-04T05:31:34;101176.13;;;1.55;82.18
12868;BME280;33517;49.866;8.320;2023-03-04T05:34:27;101176.63;;;1.62;81.71
12868;BME280;33517;49.866;8.320;2023-03-04T05:37:20;101186.25;;;1.60;81.79
12868;BME280;33517;49.866;8.320;2023-03-04T05:40:18;101181.81;;;1.62;81.28
12868;BME280;33517;49.866;8.320;2023-03-04T05:43:12;101182.34;;;1.67;82.13
12868;BME280;33517;49.866;8.320;2023-03-04T05:46:08;101185.69;;;1.69;81.24
12868;BME280;33517;49.866;8.320;2023-03-04T05:49:05;101182.00;;;1.73;81.40
12868;BME280;33517;49.866;8.320;2023-03-04T05:51:58;101184.50;;;1.74;80.79
12868;BME280;33517;49.866;8.320;2023-03-04T05:54:55;101183.03;;;1.84;82.12
12868;BME280;33517;49.866;8.320;2023-03-04T05:57:55;101187.88;;;1.91;80.99
12868;BME280;33517;49.866;8.320;2023-03-04T06:00:50;101185.47;;;2.02;81.18
12868;BME280;33517;49.866;8.320;2023-03-04T06:03:44;101184.81;;;1.98;80.55
12868;BME280;33517;49.866;8.320;2023-03-04T06:06:39;101186.94;;;1.92;80.66
12868;BME280;33517;49.866;8.320;2023-03-04T06:09:33;101194.66;;;1.93;80.80
12868;BME280;33517;49.866;8.320;2023-03-04T06:12:27;101192.78;;;1.95;80.39
12868;BME280;33517;49.866;8.320;2023-03-04T06:15:26;101199.38;;;2.01;80.37
12868;BME280;33517;49.866;8.320;2023-03-04T06:18:20;101199.28;;;2.02;79.99
12868;BME280;33517;49.866;8.320;2023-03-04T06:21:18;101201.41;;;2.10;80.52
12868;BME280;33517;49.866;8.320;2023-03-04T06:24:15;101199.56;;;2.12;79.93
12868;BME280;33517;49.866;8.320;2023-03-04T06:27:08;101208.00;;;2.15;79.58
12868;BME280;33517;49.866;8.320;2023-03-04T06:30:11;101205.19;;;2.18;79.41
12868;BME280;33517;49.866;8.320;2023-03-04T06:33:09;101215.41;;;2.21;79.99
12868;BME280;33517;49.866;8.320;2023-03-04T06:36:03;101216.06;;;2.25;79.50
12868;BME280;33517;49.866;8.320;2023-03-04T06:38:57;101215.97;;;2.26;79.67
12868;BME280;33517;49.866;8.320;2023-03-04T06:41:52;101213.28;;;2.28;79.33
12868;BME280;33517;49.866;8.320;2023-03-04T06:44:48;101218.94;;;2.34;79.96
12868;BME280;33517;49.866;8.320;2023-03-04T06:47:41;101222.19;;;2.38;79.24
12868;BME280;33517;49.866;8.320;2023-03-04T06:50:38;101225.91;;;2.48;79.15
12868;BME280;33517;49.866;8.320;2023-03-04T06:53:32;101222.72;;;2.57;78.84
12868;BME280;33517;49.866;8.320;2023-03-04T06:56:25;101224.09;;;2.62;79.19
12868;BME280;33517;49.866;8.320;2023-03-04T06:59:18;101230.69;;;2.68;78.70
12868;BME280;33517;49.866;8.320;2023-03-04T07:02:13;101228.34;;;2.77;78.66
12868;BME280;33517;49.866;8.320;2023-03-04T07:05:08;101233.09;;;2.85;78.43
12868;BME280;33517;49.866;8.320;2023-03-04T07:08:05;101233.44;;;2.93;78.02
12868;BME280;33517;49.866;8.320;2023-03-04T07:11:05;101233.63;;;3.04;78.03
12868;BME280;33517;49.866;8.320;2023-03-04T07:13:58;101243.59;;;3.10;77.52
12868;BME280;33517;49.866;8.320;2023-03-04T07:16:56;101238.97;;;3.15;77.67
12868;BME280;33517;49.866;8.320;2023-03-04T07:19:50;101244.78;;;3.19;77.79
12868;BME280;33517;49.866;8.320;2023-03-04T07:22:45;101249.59;;;3.25;77.61
12868;BME280;33517;49.866;8.320;2023-03-04T07:25:43;101254.31;;;3.32;77.92
12868;BME280;33517;49.866;8.320;2023-03-04T07:28:37;101246.00;;;3.40;77.33
12868;BME280;33517;49.866;8.320;2023-03-04T07:31:34;101245.72;;;3.44;77.62
12868;BME280;33517;49.866;8.320;2023-03-04T07:34:28;101245.41;;;3.49;77.47
12868;BME280;33517;49.866;8.320;2023-03-04T07:37:24;101249.19;;;3.57;77.00
12868;BME280;33517;49.866;8.320;2023-03-04T07:40:31;101257.53;;;3.62;77.21
12868;BME280;33517;49.866;8.320;2023-03-04T07:43:28;101252.78;;;3.69;76.66
12868;BME280;33517;49.866;8.320;2023-03-04T07:46:24;101258.38;;;3.75;76.72
12868;BME280;33517;49.866;8.320;2023-03-04T07:49:22;101259.75;;;3.81;76.63
12868;BME280;33517;49.866;8.320;2023-03-04T07:52:17;101257.47;;;3.89;76.85
12868;BME280;33517;49.866;8.320;2023-03-04T07:55:14;101255.19;;;3.97;76.59
12868;BME280;33517;49.866;8.320;2023-03-04T07:58:11;101255.53;;;4.05;76.05
12868;BME280;33517;49.866;8.320;2023-03-04T08:01:19;101259.50;;;4.11;76.07
12868;BME280;33517;49.866;8.320;2023-03-04T08:04:17;101258.97;;;4.18;76.07
12868;BME280;33517;49.866;8.320;2023-03-04T08:07:11;101263.88;;;4.23;76.03
12868;BME280;33517;49.866;8.320;2023-03-04T08:10:05;101257.72;;;4.24;75.67
12868;BME280;33517;49.866;8.320;2023-03-04T08:13:15;101260.84;;;4.29;75.88
12868;BME280;33517;49.866;8.320;2023-03-04T08:16:20;101259.50;;;4.36;75.77
12868;BME280;33517;49.866;8.320;2023-03-04T08:19:13;101263.84;;;4.48;75.31
12868;BME280;33517;49.866;8.320;2023-03-04T08:22:08;101262.91;;;4.61;75.21
12868;BME280;33517;49.866;8.320;2023-03-04T08:25:05;101270.31;;;4.67;74.89
12868;BME280;33517;49.866;8.320;2023-03-04T08:27:58;101268.72;;;4.78;74.79
12868;BME280;33517;49.866;8.320;2023-03-04T08:30:52;101263.63;;;4.76;74.65
12868;BME280;33517;49.866;8.320;2023-03-04T08:33:51;101265.91;;;4.81;74.90
12868;BME280;33517;49.866;8.320;2023-03-04T08:36:47;101275.16;;;4.85;74.82
12868;BME280;33517;49.866;8.320;2023-03-04T08:39:56;101273.81;;;4.92;74.48
12868;BME280;33517;49.866;8.320;2023-03-04T08:42:53;101265.00;;;5.05;74.28
12868;BME280;33517;49.866;8.320;2023-03-04T08:45:49;101271.06;;;5.06;73.99
12868;BME280;33517;49.866;8.320;2023-03-04T08:48:51;101272.22;;;5.02;74.24
12868;BME280;33517;49.866;8.320;2023-03-04T08:51:49;101267.28;;;5.10;74.30
12868;BME280;33517;49.866;8.320;2023-03-04T08:54:43;101275.34;;;5.07;74.35
12868;BME280;33517;49.866;8.320;2023-03-04T08:57:48;101280.94;;;5.13;74.02
12868;BME280;33517;49.866;8.320;2023-03-04T09:00:46;101277.69;;;5.22;74.25
12868;BME280;33517;49.866;8.320;2023-03-04T09:03:45;101274.53;;;5.30;73.99
12868;BME280;33517;49.866;8.320;2023-03-04T09:06:44;101276.19;;;5.31;73.72
12868;BME280;33517;49.866;8.320;2023-03-04T09:09:38;101273.72;;;5.17;74.47
12868;BME280;33517;49.866;8.320;2023-03-04T09:12:34;101278.41;;;5.24;74.17
12868;BME280;33517;49.866;8.320;2023-03-04T09:15:42;101276.88;;;5.09;74.31
12868;BME280;33517;49.866;8.320;2023-03-04T09:18:40;101280.38;;;5.21;74.33
12868;BME280;33517;49.866;8.320;2023-03-04T09:21:35;101273.75;;;5.40;73.72
12868;BME280;33517;49.866;8.320;2023-03-04T09:24:29;101265.34;;;5.48;72.71
12868;BME280;33517;49.866;8.320;2023-03-04T09:27:23;101272.75;;;5.54;73.04
12868;BME280;33517;49.866;8.320;2023-03-04T09:30:19;101260.34;;;5.69;72.15
12868;BME280;33517;49.866;8.320;2023-03-04T09:33:17;101260.28;;;5.81;72.05
12868;BME280;33517;49.866;8.320;2023-03-04T09:36:12;101274.59;;;5.99;71.39
12868;BME280;33517;49.866;8.320;2023-03-04T09:39:07;101260.38;;;6.03;70.93
12868;BME280;33517;49.866;8.320;2023-03-04T09:42:07;101263.72;;;6.16;70.33
12868;BME280;33517;49.866;8.320;2023-03-04T09:45:05;101263.72;;;6.16;69.51
12868;BME280;33517;49.866;8.320;2023-03-04T09:48:00;101265.53;;;6.27;69.03
12868;BME280;33517;49.866;8.320;2023-03-04T09:51:18;101258.53;;;6.38;68.54
12868;BME280;33517;49.866;8.320;2023-03-04T09:54:17;101261.72;;;6.42;68.97
12868;BME280;33517;49.866;8.320;2023-03-04T09:57:22;101258.91;;;6.56;67.77
12868;BME280;33517;49.866;8.320;2023-03-04T10:00:20;101264.34;;;6.64;67.54
12868;BME280;33517;49.866;8.320;2023-03-04T10:03:23;101257.22;;;6.66;66.85
12868;BME280;33517;49.866;8.320;2023-03-04T10:06:21;101259.59;;;6.80;67.25
12868;BME280;33517;49.866;8.320;2023-03-04T10:09:19;101260.31;;;6.82;66.69
12868;BME280;33517;49.866;8.320;2023-03-04T10:12:26;101264.34;;;6.97;65.88
12868;BME280;33517;49.866;8.320;2023-03-04T10:15:30;101261.50;;;7.00;65.40
12868;BME280;33517;49.866;8.320;2023-03-04T10:18:33;101263.50;;;7.08;66.02
12868;BME280;33517;49.866;8.320;2023-03-04T10:21:31;101258.59;;;7.14;65.68
12868;BME280;33517;49.866;8.320;2023-03-04T10:24:30;101263.56;;;7.28;64.99
12868;BME280;33517;49.866;8.320;2023-03-04T10:27:27;101258.91;;;7.32;65.44
12868;BME280;33517;49.866;8.320;2023-03-04T10:30:31;101256.56;;;7.29;64.47
12868;BME280;33517;49.866;8.320;2023-03-04T10:33:34;101261.31;;;7.24;64.26
12868;BME280;33517;49.866;8.320;2023-03-04T10:36:45;101257.00;;;7.34;64.40
12868;BME280;33517;49.866;8.320;2023-03-04T10:39:48;101249.59;;;7.39;62.91
12868;BME280;33517;49.866;8.320;2023-03-04T10:42:50;101244.25;;;7.40;63.64
12868;BME280;33517;49.866;8.320;2023-03-04T10:45:45;101240.63;;;7.53;62.58
12868;BME280;33517;49.866;8.320;2023-03-04T10:48:43;101249.88;;;7.57;62.65
12868;BME280;33517;49.866;8.320;2023-03-04T10:51:47;101241.09;;;7.58;62.22
12868;BME280;33517;49.866;8.320;2023-03-04T10:54:46;101244.94;;;7.42;62.09
12868;BME280;33517;49.866;8.320;2023-03-04T10:57:46;101242.00;;;7.36;62.75
12868;BME280;33517;49.866;8.320;2023-03-04T11:00:41;101239.34;;;7.47;62.31
12868;BME280;33517;49.866;8.320;2023-03-04T11:03:35;101238.47;;;7.58;62.88
12868;BME280;33517;49.866;8.320;2023-03-04T11:06:31;101232.84;;;7.30;61.66
12868;BME280;33517;49.866;8.320;2023-03-04T11:09:26;101238.59;;;7.24;62.81
12868;BME280;33517;49.866;8.320;2023-03-04T11:12:29;101224.13;;;7.41;61.99
12868;BME280;33517;49.866;8.320;2023-03-04T11:15:29;101232.03;;;7.30;61.90
12868;BME280;33517;49.866;8.320;2023-03-04T11:18:26;101226.13;;;7.17;62.09
12868;BME280;33517;49.866;8.320;2023-03-04T11:21:23;101226.75;;;7.41;61.83
12868;BME280;33517;49.866;8.320;2023-03-04T11:24:23;101219.44;;;7.56;61.52
12868;BME280;33517;49.866;8.320;2023-03-04T11:27:25;101212.44;;;7.45;61.01
12868;BME280;33517;49.866;8.320;2023-03-04T11:30:43;101211.59;;;7.44;61.93
12868;BME280;33517;49.866;8.320;2023-03-04T11:33:44;101209.13;;;7.43;62.24
12868;BME280;33517;49.866;8.320;2023-03-04T11:36:50;101216.09;;;7.22;61.69
12868;BME280;33517;49.866;8.320;2023-03-04T11:39:53;101206.72;;;7.51;61.66
12868;BME280;33517;49.866;8.320;2023-03-04T11:42:51;101203.03;;;7.74;61.40
12868;BME280;33517;49.866;8.320;2023-03-04T11:53:05;101197.00;;;7.63;61.44
12868;BME280;33517;49.866;8.320;2023-03-04T11:56:30;101195.97;;;7.54;61.31
12868;BME280;33517;49.866;8.320;2023-03-04T11:59:41;101189.28;;;7.61;60.96
12868;BME280;33517;49.866;8.320;2023-03-04T12:02:58;101183.34;;;7.59;61.08
12868;BME280;33517;49.866;8.320;2023-03-04T12:06:01;101193.88;;;7.69;61.56
12868;BME280;33517;49.866;8.320;2023-03-04T12:09:13;101188.75;;;7.46;61.01
12868;BME280;33517;49.866;8.320;2023-03-04T12:12:26;101177.81;;;7.41;60.98
12868;BME280;33517;49.866;8.320;2023-03-04T12:15:27;101182.72;;;7.35;61.48
12868;BME280;33517;49.866;8.320;2023-03-04T12:18:39;101172.16;;;7.36;62.60
12868;BME280;33517;49.866;8.320;2023-03-04T12:21:58;101176.06;;;7.42;62.15
12868;BME280;33517;49.866;8.320;2023-03-04T12:28:25;101164.69;;;7.53;61.11
12868;BME280;33517;49.866;8.320;2023-03-04T12:31:49;101165.16;;;7.58;60.66
12868;BME280;33517;49.866;8.320;2023-03-04T12:35:11;101160.63;;;7.60;61.40
12868;BME280;33517;49.866;8.320;2023-03-04T12:38:28;101158.50;;;7.54;61.41
12868;BME280;33517;49.866;8.320;2023-03-04T12:41:33;101151.97;;;7.69;61.22
12868;BME280;33517;49.866;8.320;2023-03-04T12:44:36;101148.53;;;7.68;61.35
12868;BME280;33517;49.866;8.320;2023-03-04T12:47:39;101152.75;;;7.60;61.88
12868;BME280;33517;49.866;8.320;2023-03-04T12:50:50;101143.78;;;7.62;61.19
12868;BME280;33517;49.866;8.320;2023-03-04T12:54:02;101144.56;;;7.74;61.36
12868;BME280;33517;49.866;8.320;2023-03-04T12:57:16;101144.94;;;7.90;60.47
12868;BME280;33517;49.866;8.320;2023-03-04T13:00:26;101148.69;;;7.97;61.25
12868;BME280;33517;49.866;8.320;2023-03-04T13:03:35;101135.53;;;7.87;60.94
12868;BME280;33517;49.866;8.320;2023-03-04T13:06:43;101132.31;;;8.04;60.46
12868;BME280;33517;49.866;8.320;2023-03-04T13:09:56;101129.16;;;8.10;61.07
12868;BME280;33517;49.866;8.320;2023-03-04T13:12:54;101123.25;;;8.18;59.99
12868;BME280;33517;49.866;8.320;2023-03-04T13:16:04;101119.16;;;8.25;59.45
12868;BME280;33517;49.866;8.320;2023-03-04T13:19:01;101115.06;;;8.02;60.21
12868;BME280;33517;49.866;8.320;2023-03-04T13:22:01;101110.00;;;8.19;60.28
12868;BME280;33517;49.866;8.320;2023-03-04T13:25:28;101100.25;;;8.61;59.32
12868;BME280;33517;49.866;8.320;2023-03-04T13:28:26;101091.81;;;8.86;58.11
12868;BME280;33517;49.866;8.320;2023-03-04T13:31:28;101089.47;;;9.12;57.41
12868;BME280;33517;49.866;8.320;2023-03-04T13:34:47;101085.56;;;9.45;58.11
12868;BME280;33517;49.866;8.320;2023-03-04T13:37:58;101083.63;;;9.56;57.39
12868;BME280;33517;49.866;8.320;2023-03-04T13:41:23;101082.38;;;9.51;56.79
12868;BME280;33517;49.866;8.320;2023-03-04T13:47:54;101082.69;;;9.28;56.24
12868;BME280;33517;49.866;8.320;2023-03-04T13:50:57;101076.91;;;9.06;56.66
12868;BME280;33517;49.866;8.320;2023-03-04T13:54:06;101082.28;;;8.66;56.91
12868;BME280;33517;49.866;8.320;2023-03-04T13:57:17;101080.34;;;8.49;58.27
12868;BME280;33517;49.866;8.320;2023-03-04T14:00:14;101069.03;;;8.68;57.55
12868;BME280;33517;49.866;8.320;2023-03-04T14:03:29;101078.78;;;8.47;58.20
12868;BME280;33517;49.866;8.320;2023-03-04T14:06:27;101079.09;;;8.44;57.24
12868;BME280;33517;49.866;8.320;2023-03-04T14:09:24;101075.63;;;8.43;56.93
12868;BME280;33517;49.866;8.320;2023-03-04T14:12:19;101068.69;;;8.42;57.56
12868;BME280;33517;49.866;8.320;2023-03-04T14:15:24;101070.22;;;8.35;57.64
12868;BME280;33517;49.866;8.320;2023-03-04T14:18:24;101063.91;;;8.47;57.62
12868;BME280;33517;49.866;8.320;2023-03-04T14:21:35;101059.47;;;8.38;57.61
12868;BME280;33517;49.866;8.320;2023-03-04T14:24:36;101056.00;;;8.38;58.43
12868;BME280;33517;49.866;8.320;2023-03-04T14:27:32;101060.34;;;8.18;57.78
12868;BME280;33517;49.866;8.320;2023-03-04T14:30:29;101058.38;;;8.10;59.01
12868;BME280;33517;49.866;8.320;2023-03-04T14:33:24;101059.97;;;7.92;59.22
12868;BME280;33517;49.866;8.320;2023-03-04T14:36:23;101053.09;;;7.91;58.95
12868;BME280;33517;49.866;8.320;2023-03-04T14:39:21;101045.81;;;8.04;59.60
12868;BME280;33517;49.866;8.320;2023-03-04T14:42:24;101034.41;;;8.15;58.50
12868;BME280;33517;49.866;8.320;2023-03-04T14:45:27;101032.47;;;8.17;59.02
12868;BME280;33517;49.866;8.320;2023-03-04T14:48:23;101029.94;;;8.06;58.89
12868;BME280;33517;49.866;8.320;2023-03-04T14:51:29;101029.38;;;7.93;60.16
12868;BME280;33517;49.866;8.320;2023-03-04T14:54:31;101031.03;;;7.94;60.17
12868;BME280;33517;49.866;8.320;2023-03-04T14:57:32;101027.56;;;7.93;60.39
12868;BME280;33517;49.866;8.320;2023-03-04T15:00:29;101025.91;;;7.92;59.73
12868;BME280;33517;49.866;8.320;2023-03-04T15:03:28;101013.94;;;7.99;60.83
12868;BME280;33517;49.866;8.320;2023-03-04T15:06:29;101017.53;;;8.08;60.71
12868;BME280;33517;49.866;8.320;2023-03-04T15:09:28;101015.69;;;7.89;60.50
12868;BME280;33517;49.866;8.320;2023-03-04T15:12:24;101008.25;;;7.94;61.23
12868;BME280;33517;49.866;8.320;2023-03-04T15:15:58;101008.94;;;7.87;61.24
12868;BME280;33517;49.866;8.320;2023-03-04T15:18:57;101019.41;;;7.87;62.11
12868;BME280;33517;49.866;8.320;2023-03-04T15:22:10;101014.72;;;7.81;61.36
12868;BME280;33517;49.866;8.320;2023-03-04T15:25:20;101017.59;;;7.78;61.94
12868;BME280;33517;49.866;8.320;2023-03-04T15:28:17;101005.16;;;7.70;62.03
12868;BME280;33517;49.866;8.320;2023-03-04T15:31:19;101007.56;;;7.53;63.42
12868;BME280;33517;49.866;8.320;2023-03-04T15:34:15;100992.97;;;7.50;63.74
12868;BME280;33517;49.866;8.320;2023-03-04T15:37:18;100995.63;;;7.60;62.94
12868;BME280;33517;49.866;8.320;2023-03-04T15:40:19;100997.66;;;7.56;64.07
12868;BME280;33517;49.866;8.320;2023-03-04T15:43:18;100993.94;;;7.59;63.54
12868;BME280;33517;49.866;8.320;2023-03-04T15:46:12;100995.47;;;7.61;63.18
12868;BME280;33517;49.866;8.320;2023-03-04T15:49:11;100988.25;;;7.44;64.75
12868;BME280;33517;49.866;8.320;2023-03-04T15:52:05;100984.22;;;7.40;65.11
12868;BME280;33517;49.866;8.320;2023-03-04T15:55:02;100987.41;;;7.43;64.64
12868;BME280;33517;49.866;8.320;2023-03-04T15:57:55;100997.34;;;7.50;63.83
12868;BME280;33517;49.866;8.320;2023-03-04T16:00:53;100991.84;;;7.53;64.37